sensor_id;sensor_type;location;lat;lon;timestamp;pressure;altitude;pressure_sealevel;temperature;humidity
70589;BME280;58152;49.202;18.744;2023-02-19T00:01:17;97206.97;;;8.63;65.54
70589;BME280;58152;49.202;18.744;2023-02-19T00:03:52;97203.50;;;8.63;65.46
70589;BME280;58152;49.202;18.744;2023-02-19T00:06:19;97200.09;;;8.61;65.76
70589;BME280;58152;49.202;18.744;2023-02-19T00:08:45;97199.13;;;8.63;64.96
70589;BME280;58152;49.202;18.744;2023-02-19T00:11:12;97203.50;;;8.63;65.32
70589;BME280;58152;49.202;18.744;2023-02-19T00:13:40;97211.34;;;8.63;65.47
70589;BME280;58152;49.202;18.744;2023-02-19T00:16:07;97217.44;;;8.63;65.03
70589;BME280;58152;49.202;18.744;2023-02-19T00:18:33;97216.59;;;8.63;65.15
70589;BME280;58152;49.202;18.744;2023-02-19T00:20:58;97209.59;;;8.63;65.51
70589;BME280;58152;49.202;18.744;2023-02-19T00:23:24;97217.31;;;8.67;64.83
70589;BME280;58152;49.202;18.744;2023-02-19T00:25:49;97203.44;;;8.64;65.29
70589;BME280;58152;49.202;18.744;2023-02-19T00:28:14;97205.22;;;8.64;65.34
70589;BME280;58152;49.202;18.744;2023-02-19T00:30:40;97210.50;;;8.62;64.73
70589;BME280;58152;49.202;18.744;2023-02-19T00:33:05;97206.25;;;8.60;64.57
70589;BME280;58152;49.202;18.744;2023-02-19T00:35:33;97213.06;;;8.64;64.66
70589;BME280;58152;49.202;18.744;2023-02-19T00:37:59;97211.34;;;8.63;64.30
70589;BME280;58152;49.202;18.744;2023-02-19T00:40:24;97220.97;;;8.62;64.87
70589;BME280;58152;49.202;18.744;2023-02-19T00:42:51;97215.66;;;8.64;64.81
70589;BME280;58152;49.202;18.744;2023-02-19T00:45:16;97218.34;;;8.62;64.81
70589;BME280;58152;49.202;18.744;2023-02-19T00:47:42;97217.44;;;8.63;64.81
70589;BME280;58152;49.202;18.744;2023-02-19T00:50:07;97216.47;;;8.66;65.09
70589;BME280;58152;49.202;18.744;2023-02-19T00:52:33;97224.31;;;8.66;65.07
70589;BME280;58152;49.202;18.744;2023-02-19T00:54:58;97225.22;;;8.65;65.12
70589;BME280;58152;49.202;18.744;2023-02-19T00:57:24;97227.81;;;8.65;65.13
70589;BME280;58152;49.202;18.744;2023-02-19T00:59:49;97227.06;;;8.63;64.66
70589;BME280;58152;49.202;18.744;2023-02-19T01:02:15;97221.81;;;8.63;64.78
70589;BME280;58152;49.202;18.744;2023-02-19T01:04:40;97222.66;;;8.63;64.42
70589;BME280;58152;49.202;18.744;2023-02-19T01:07:05;97217.50;;;8.62;64.98
70589;BME280;58152;49.202;18.744;2023-02-19T01:09:31;97213.13;;;8.62;64.79
70589;BME280;58152;49.202;18.744;2023-02-19T01:11:56;97224.44;;;8.63;64.78
70589;BME280;58152;49.202;18.744;2023-02-19T01:14:22;97224.50;;;8.61;65.02
70589;BME280;58152;49.202;18.744;2023-02-19T01:16:47;97223.59;;;8.62;64.91
70589;BME280;58152;49.202;18.744;2023-02-19T01:19:12;97215.84;;;8.59;64.49
70589;BME280;58152;49.202;18.744;2023-02-19T01:21:38;97231.47;;;8.61;64.94
70589;BME280;58152;49.202;18.744;2023-02-19T01:24:04;97218.47;;;8.59;65.25
70589;BME280;58152;49.202;18.744;2023-02-19T01:26:31;97203.81;;;8.55;65.51
70589;BME280;58152;49.202;18.744;2023-02-19T01:28:59;97205.41;;;8.59;65.50
70589;BME280;58152;49.202;18.744;2023-02-19T01:31:25;97206.25;;;8.60;65.28
70589;BME280;58152;49.202;18.744;2023-02-19T01:33:53;97198.47;;;8.58;65.11
70589;BME280;58152;49.202;18.744;2023-02-19T01:36:19;97195.13;;;8.55;64.91
70589;BME280;58152;49.202;18.744;2023-02-19T01:38:44;97185.47;;;8.57;65.22
70589;BME280;58152;49.202;18.744;2023-02-19T01:41:13;97179.34;;;8.56;65.47
70589;BME280;58152;49.202;18.744;2023-02-19T01:44:01;97182.88;;;8.55;64.94
70589;BME280;58152;49.202;18.744;2023-02-19T01:46:31;97172.63;;;8.51;65.05
70589;BME280;58152;49.202;18.744;2023-02-19T01:49:02;97174.28;;;8.53;65.70
70589;BME280;58152;49.202;18.744;2023-02-19T01:51:29;97173.41;;;8.53;65.82
70589;BME280;58152;49.202;18.744;2023-02-19T01:53:59;97176.16;;;8.50;65.19
70589;BME280;58152;49.202;18.744;2023-02-19T01:56:26;97172.69;;;8.49;65.37
70589;BME280;58152;49.202;18.744;2023-02-19T01:58:54;97162.22;;;8.49;65.23
70589;BME280;58152;49.202;18.744;2023-02-19T02:01:20;97164.03;;;8.47;65.36
70589;BME280;58152;49.202;18.744;2023-02-19T02:03:47;97159.69;;;8.48;65.23
70589;BME280;58152;49.202;18.744;2023-02-19T02:06:16;97161.38;;;8.49;64.95
70589;BME280;58152;49.202;18.744;2023-02-19T02:08:44;97158.88;;;8.46;65.48
70589;BME280;58152;49.202;18.744;2023-02-19T02:11:28;97161.56;;;8.44;65.54
70589;BME280;58152;49.202;18.744;2023-02-19T02:13:54;97167.72;;;8.43;65.28
70589;BME280;58152;49.202;18.744;2023-02-19T02:19:00;97163.44;;;8.40;65.37
70589;BME280;58152;49.202;18.744;2023-02-19T02:32:30;97150.53;;;8.36;65.61
70589;BME280;58152;49.202;18.744;2023-02-19T02:35:01;97163.50;;;8.39;65.76
70589;BME280;58152;49.202;18.744;2023-02-19T02:37:32;97146.16;;;8.36;65.25
70589;BME280;58152;49.202;18.744;2023-02-19T02:40:01;97139.22;;;8.35;65.62
70589;BME280;58152;49.202;18.744;2023-02-19T02:42:27;97126.16;;;8.35;65.46
70589;BME280;58152;49.202;18.744;2023-02-19T02:44:53;97129.59;;;8.36;65.63
70589;BME280;58152;49.202;18.744;2023-02-19T02:50:24;97126.25;;;8.32;65.47
70589;BME280;58152;49.202;18.744;2023-02-19T02:52:58;97119.41;;;8.30;65.51
70589;BME280;58152;49.202;18.744;2023-02-19T02:55:46;97119.41;;;8.30;65.11
70589;BME280;58152;49.202;18.744;2023-02-19T02:58:14;97127.25;;;8.30;65.83
70589;BME280;58152;49.202;18.744;2023-02-19T03:00:42;97135.09;;;8.30;65.87
70589;BME280;58152;49.202;18.744;2023-02-19T03:03:29;97134.34;;;8.26;65.02
70589;BME280;58152;49.202;18.744;2023-02-19T03:06:00;97132.50;;;8.28;65.48
70589;BME280;58152;49.202;18.744;2023-02-19T03:08:35;97129.06;;;8.28;65.29
70589;BME280;58152;49.202;18.744;2023-02-19T03:11:06;97125.59;;;8.27;65.10
70589;BME280;58152;49.202;18.744;2023-02-19T03:13:56;97126.63;;;8.23;65.56
70589;BME280;58152;49.202;18.744;2023-02-19T03:16:43;97125.66;;;8.26;64.98
70589;BME280;58152;49.202;18.744;2023-02-19T03:19:30;97124.81;;;8.25;64.97
70589;BME280;58152;49.202;18.744;2023-02-19T03:22:26;97130.88;;;8.26;64.87
70589;BME280;58152;49.202;18.744;2023-02-19T03:25:05;97134.34;;;8.26;65.61
70589;BME280;58152;49.202;18.744;2023-02-19T03:27:51;97147.53;;;8.23;65.48
70589;BME280;58152;49.202;18.744;2023-02-19T03:30:24;97138.94;;;8.20;65.06
70589;BME280;58152;49.202;18.744;2023-02-19T03:32:59;97147.50;;;8.25;65.87
70589;BME280;58152;49.202;18.744;2023-02-19T03:35:29;97148.38;;;8.24;65.43
70589;BME280;58152;49.202;18.744;2023-02-19T03:38:14;97135.44;;;8.21;65.81
70589;BME280;58152;49.202;18.744;2023-02-19T03:43:37;97126.75;;;8.20;65.53
70589;BME280;58152;49.202;18.744;2023-02-19T03:46:12;97130.25;;;8.19;65.46
70589;BME280;58152;49.202;18.744;2023-02-19T03:49:07;97130.22;;;8.21;65.28
70589;BME280;58152;49.202;18.744;2023-02-19T03:51:44;97120.72;;;8.18;65.23
70589;BME280;58152;49.202;18.744;2023-02-19T03:54:50;97111.94;;;8.21;65.29
70589;BME280;58152;49.202;18.744;2023-02-19T03:57:22;97114.59;;;8.19;66.13
70589;BME280;58152;49.202;18.744;2023-02-19T04:00:03;97111.97;;;8.19;65.94
70589;BME280;58152;49.202;18.744;2023-02-19T04:02:39;97109.31;;;8.21;65.62
70589;BME280;58152;49.202;18.744;2023-02-19T04:07:41;97114.53;;;8.21;66.21
70589;BME280;58152;49.202;18.744;2023-02-19T04:10:09;97118.84;;;8.22;66.34
70589;BME280;58152;49.202;18.744;2023-02-19T04:12:38;97116.25;;;8.22;66.06
70589;BME280;58152;49.202;18.744;2023-02-19T04:15:11;97110.91;;;8.25;66.22
70589;BME280;58152;49.202;18.744;2023-02-19T04:17:43;97117.81;;;8.26;66.45
70589;BME280;58152;49.202;18.744;2023-02-19T04:20:12;97130.94;;;8.24;66.55
70589;BME280;58152;49.202;18.744;2023-02-19T04:22:39;97118.13;;;8.18;66.98
70589;BME280;58152;49.202;18.744;2023-02-19T04:25:07;97116.50;;;8.15;66.79
70589;BME280;58152;49.202;18.744;2023-02-19T04:27:37;97124.25;;;8.17;67.24
70589;BME280;58152;49.202;18.744;2023-02-19T04:30:04;97114.00;;;8.12;67.89
70589;BME280;58152;49.202;18.744;2023-02-19T04:32:30;97114.91;;;8.11;67.62
70589;BME280;58152;49.202;18.744;2023-02-19T04:34:55;97108.94;;;8.08;68.11
70589;BME280;58152;49.202;18.744;2023-02-19T04:37:21;97103.78;;;8.06;68.27
70589;BME280;58152;49.202;18.744;2023-02-19T04:39:46;97098.50;;;8.08;67.90
70589;BME280;58152;49.202;18.744;2023-02-19T04:42:11;97102.88;;;8.07;68.33
70589;BME280;58152;49.202;18.744;2023-02-19T04:44:44;97106.34;;;8.08;68.90
70589;BME280;58152;49.202;18.744;2023-02-19T04:47:10;97104.63;;;8.07;68.76
70589;BME280;58152;49.202;18.744;2023-02-19T04:49:35;97107.19;;;8.08;68.57
70589;BME280;58152;49.202;18.744;2023-02-19T04:52:01;97099.41;;;8.07;68.43
70589;BME280;58152;49.202;18.744;2023-02-19T04:54:26;97105.53;;;8.06;68.47
70589;BME280;58152;49.202;18.744;2023-02-19T04:56:51;97105.47;;;8.07;68.31
70589;BME280;58152;49.202;18.744;2023-02-19T04:59:17;97117.53;;;8.11;68.71
70589;BME280;58152;49.202;18.744;2023-02-19T05:01:42;97116.66;;;8.11;68.99
70589;BME280;58152;49.202;18.744;2023-02-19T05:04:08;97113.13;;;8.12;69.18
70589;BME280;58152;49.202;18.744;2023-02-19T05:06:33;97112.34;;;8.10;69.00
70589;BME280;58152;49.202;18.744;2023-02-19T05:08:59;97107.25;;;8.07;69.48
70589;BME280;58152;49.202;18.744;2023-02-19T05:11:24;97090.75;;;8.05;69.27
70589;BME280;58152;49.202;18.744;2023-02-19T05:13:50;97097.66;;;8.07;69.55
70589;BME280;58152;49.202;18.744;2023-02-19T05:16:16;97098.56;;;8.06;69.31
70589;BME280;58152;49.202;18.744;2023-02-19T05:18:43;97096.91;;;8.04;69.48
70589;BME280;58152;49.202;18.744;2023-02-19T05:21:10;97099.44;;;8.05;70.05
70589;BME280;58152;49.202;18.744;2023-02-19T05:23:35;97095.16;;;8.04;70.08
70589;BME280;58152;49.202;18.744;2023-02-19T05:26:10;97083.00;;;8.03;69.44
70589;BME280;58152;49.202;18.744;2023-02-19T05:28:35;97044.91;;;7.98;69.93
70589;BME280;58152;49.202;18.744;2023-02-19T05:31:07;97053.53;;;8.00;69.57
70589;BME280;58152;49.202;18.744;2023-02-19T05:33:33;97062.19;;;8.00;70.18
70589;BME280;58152;49.202;18.744;2023-02-19T05:36:04;97070.03;;;8.00;69.68
70589;BME280;58152;49.202;18.744;2023-02-19T05:38:30;97065.66;;;8.01;69.82
70589;BME280;58152;49.202;18.744;2023-02-19T05:40:55;97070.03;;;8.00;70.04
70589;BME280;58152;49.202;18.744;2023-02-19T05:43:30;97067.50;;;7.99;70.07
70589;BME280;58152;49.202;18.744;2023-02-19T05:45:57;97059.75;;;7.97;69.75
70589;BME280;58152;49.202;18.744;2023-02-19T05:48:23;97072.66;;;8.00;69.60
70589;BME280;58152;49.202;18.744;2023-02-19T05:50:48;97072.66;;;8.00;69.96
70589;BME280;58152;49.202;18.744;2023-02-19T05:53:13;97066.66;;;7.98;69.51
70589;BME280;58152;49.202;18.744;2023-02-19T05:55:39;97076.25;;;7.98;69.96
70589;BME280;58152;49.202;18.744;2023-02-19T05:58:05;97073.75;;;7.95;70.17
70589;BME280;58152;49.202;18.744;2023-02-19T06:00:31;97066.69;;;7.97;70.41
70589;BME280;58152;49.202;18.744;2023-02-19T06:02:56;97067.63;;;7.96;70.21
70589;BME280;58152;49.202;18.744;2023-02-19T06:05:22;97063.31;;;7.95;70.70
70589;BME280;58152;49.202;18.744;2023-02-19T06:07:47;97066.09;;;7.90;70.21
70589;BME280;58152;49.202;18.744;2023-02-19T06:10:15;97068.78;;;7.88;70.85
70589;BME280;58152;49.202;18.744;2023-02-19T06:12:40;97067.94;;;7.88;70.24
70589;BME280;58152;49.202;18.744;2023-02-19T06:15:06;97064.34;;;7.90;70.36
70589;BME280;58152;49.202;18.744;2023-02-19T06:17:32;97062.72;;;7.88;70.57
70589;BME280;58152;49.202;18.744;2023-02-19T06:19:58;97067.94;;;7.88;70.51
70589;BME280;58152;49.202;18.744;2023-02-19T06:22:24;97071.44;;;7.87;70.53
70589;BME280;58152;49.202;18.744;2023-02-19T06:24:49;97059.28;;;7.86;71.16
70589;BME280;58152;49.202;18.744;2023-02-19T06:27:15;97055.91;;;7.84;71.48
70589;BME280;58152;49.202;18.744;2023-02-19T06:29:40;97048.84;;;7.86;71.53
70589;BME280;58152;49.202;18.744;2023-02-19T06:32:06;97061.06;;;7.85;70.88
70589;BME280;58152;49.202;18.744;2023-02-19T06:34:32;97056.56;;;7.89;71.34
70589;BME280;58152;49.202;18.744;2023-02-19T06:36:58;97059.19;;;7.89;71.17
70589;BME280;58152;49.202;18.744;2023-02-19T06:39:24;97051.34;;;7.89;71.23
70589;BME280;58152;49.202;18.744;2023-02-19T06:41:49;97052.97;;;7.92;71.80
70589;BME280;58152;49.202;18.744;2023-02-19T06:44:15;97044.28;;;7.91;71.41
70589;BME280;58152;49.202;18.744;2023-02-19T06:46:41;97057.34;;;7.91;71.83
70589;BME280;58152;49.202;18.744;2023-02-19T06:49:06;97054.81;;;7.89;72.08
70589;BME280;58152;49.202;18.744;2023-02-19T06:51:32;97050.44;;;7.90;71.22
70589;BME280;58152;49.202;18.744;2023-02-19T06:53:58;97053.88;;;7.90;71.72
70589;BME280;58152;49.202;18.744;2023-02-19T06:56:29;97054.81;;;7.89;72.14
70589;BME280;58152;49.202;18.744;2023-02-19T06:59:00;97049.66;;;7.88;71.50
70589;BME280;58152;49.202;18.744;2023-02-19T07:01:27;97053.16;;;7.87;71.92
70589;BME280;58152;49.202;18.744;2023-02-19T07:03:53;97044.53;;;7.85;71.21
70589;BME280;58152;49.202;18.744;2023-02-19T07:06:20;97039.31;;;7.85;71.21
70589;BME280;58152;49.202;18.744;2023-02-19T07:08:46;97041.06;;;7.84;71.87
70589;BME280;58152;49.202;18.744;2023-02-19T07:11:11;97037.53;;;7.85;71.38
70589;BME280;58152;49.202;18.744;2023-02-19T07:13:37;97032.41;;;7.84;71.63
70589;BME280;58152;49.202;18.744;2023-02-19T07:16:05;97032.41;;;7.84;71.48
70589;BME280;58152;49.202;18.744;2023-02-19T07:18:32;97025.41;;;7.84;70.82
70589;BME280;58152;49.202;18.744;2023-02-19T07:21:17;97022.72;;;7.86;71.54
70589;BME280;58152;49.202;18.744;2023-02-19T07:23:44;97033.06;;;7.89;70.68
70589;BME280;58152;49.202;18.744;2023-02-19T07:26:15;97027.00;;;7.88;70.79
70589;BME280;58152;49.202;18.744;2023-02-19T07:28:42;97024.22;;;7.92;70.81
70589;BME280;58152;49.202;18.744;2023-02-19T07:31:08;97039.03;;;7.93;71.28
70589;BME280;58152;49.202;18.744;2023-02-19T07:33:34;97038.13;;;7.92;70.71
70589;BME280;58152;49.202;18.744;2023-02-19T07:35:59;97021.63;;;7.92;70.83
70589;BME280;58152;49.202;18.744;2023-02-19T07:38:26;97022.47;;;7.92;70.88
70589;BME280;58152;49.202;18.744;2023-02-19T07:40:59;97022.47;;;7.92;71.38
70589;BME280;58152;49.202;18.744;2023-02-19T07:43:28;97020.00;;;7.89;71.22
70589;BME280;58152;49.202;18.744;2023-02-19T07:45:54;97027.66;;;7.94;71.91
70589;BME280;58152;49.202;18.744;2023-02-19T07:48:20;97013.84;;;7.90;71.48
70589;BME280;58152;49.202;18.744;2023-02-19T07:50:56;97018.16;;;7.91;72.18
70589;BME280;58152;49.202;18.744;2023-02-19T07:53:23;97017.31;;;7.90;72.07
70589;BME280;58152;49.202;18.744;2023-02-19T07:55:49;97008.69;;;7.88;72.61
70589;BME280;58152;49.202;18.744;2023-02-19T07:58:15;97001.81;;;7.86;72.80
70589;BME280;58152;49.202;18.744;2023-02-19T08:00:40;97002.63;;;7.88;73.07
70589;BME280;58152;49.202;18.744;2023-02-19T08:03:06;97006.09;;;7.88;72.98
70589;BME280;58152;49.202;18.744;2023-02-19T08:05:39;96996.50;;;7.89;73.16
70589;BME280;58152;49.202;18.744;2023-02-19T08:08:12;97006.03;;;7.90;73.31
70589;BME280;58152;49.202;18.744;2023-02-19T08:10:38;97007.84;;;7.88;73.59
70589;BME280;58152;49.202;18.744;2023-02-19T08:13:24;96995.75;;;7.85;74.09
70589;BME280;58152;49.202;18.744;2023-02-19T08:15:50;97002.75;;;7.85;74.37
70589;BME280;58152;49.202;18.744;2023-02-19T08:18:18;96989.69;;;7.85;73.70
70589;BME280;58152;49.202;18.744;2023-02-19T08:20:44;96992.38;;;7.83;73.76
70589;BME280;58152;49.202;18.744;2023-02-19T08:23:10;96999.22;;;7.86;74.12
70589;BME280;58152;49.202;18.744;2023-02-19T08:25:36;96991.38;;;7.86;73.54
70589;BME280;58152;49.202;18.744;2023-02-19T08:28:03;97011.34;;;7.87;74.12
70589;BME280;58152;49.202;18.744;2023-02-19T08:30:29;97006.94;;;7.89;74.07
70589;BME280;58152;49.202;18.744;2023-02-19T08:32:56;97007.84;;;7.88;73.73
70589;BME280;58152;49.202;18.744;2023-02-19T08:35:22;97008.69;;;7.88;73.60
70589;BME280;58152;49.202;18.744;2023-02-19T08:37:47;96993.03;;;7.88;73.28
70589;BME280;58152;49.202;18.744;2023-02-19T08:40:12;97002.50;;;7.91;72.80
70589;BME280;58152;49.202;18.744;2023-02-19T08:42:38;97005.06;;;7.93;73.00
70589;BME280;58152;49.202;18.744;2023-02-19T08:45:04;96992.84;;;7.93;73.53
70589;BME280;58152;49.202;18.744;2023-02-19T08:47:29;97009.22;;;7.97;72.71
70589;BME280;58152;49.202;18.744;2023-02-19T08:49:55;96988.47;;;7.94;72.84
70589;BME280;58152;49.202;18.744;2023-02-19T08:52:20;96983.91;;;7.99;72.88
70589;BME280;58152;49.202;18.744;2023-02-19T08:54:45;96971.69;;;7.99;72.70
70589;BME280;58152;49.202;18.744;2023-02-19T08:57:11;96974.97;;;8.04;72.99
70589;BME280;58152;49.202;18.744;2023-02-19T08:59:36;96977.47;;;8.07;73.00
70589;BME280;58152;49.202;18.744;2023-02-19T09:02:02;96973.00;;;8.09;73.21
70589;BME280;58152;49.202;18.744;2023-02-19T09:04:27;96977.31;;;8.10;73.41
70589;BME280;58152;49.202;18.744;2023-02-19T09:06:53;96982.50;;;8.12;73.10
70589;BME280;58152;49.202;18.744;2023-02-19T09:09:18;96978.84;;;8.16;72.53
70589;BME280;58152;49.202;18.744;2023-02-19T09:11:44;96977.06;;;8.17;73.30
70589;BME280;58152;49.202;18.744;2023-02-19T09:14:09;97000.59;;;8.17;73.26
70589;BME280;58152;49.202;18.744;2023-02-19T09:16:36;96984.94;;;8.15;73.38
70589;BME280;58152;49.202;18.744;2023-02-19T09:19:02;96963.28;;;8.13;73.14
70589;BME280;58152;49.202;18.744;2023-02-19T09:21:28;96991.91;;;8.16;73.50
70589;BME280;58152;49.202;18.744;2023-02-19T09:23:53;96978.13;;;8.12;73.34
70589;BME280;58152;49.202;18.744;2023-02-19T09:26:19;96985.94;;;8.12;73.01
70589;BME280;58152;49.202;18.744;2023-02-19T09:28:45;96975.56;;;8.11;73.49
70589;BME280;58152;49.202;18.744;2023-02-19T09:31:13;96974.56;;;8.13;73.40
70589;BME280;58152;49.202;18.744;2023-02-19T09:33:43;96975.38;;;8.15;73.25
70589;BME280;58152;49.202;18.744;2023-02-19T09:36:09;96963.34;;;8.11;73.30
70589;BME280;58152;49.202;18.744;2023-02-19T09:38:34;96963.19;;;8.14;72.93
70589;BME280;58152;49.202;18.744;2023-02-19T09:41:07;96986.69;;;8.16;72.96
70589;BME280;58152;49.202;18.744;2023-02-19T09:43:33;96969.22;;;8.17;73.18
70589;BME280;58152;49.202;18.744;2023-02-19T09:46:03;96960.53;;;8.16;73.02
70589;BME280;58152;49.202;18.744;2023-02-19T09:48:32;96991.94;;;8.14;73.22
70589;BME280;58152;49.202;18.744;2023-02-19T09:50:58;96954.59;;;8.12;73.57
70589;BME280;58152;49.202;18.744;2023-02-19T09:53:26;96970.16;;;8.15;73.73
70589;BME280;58152;49.202;18.744;2023-02-19T09:55:54;96957.09;;;8.15;73.76
70589;BME280;58152;49.202;18.744;2023-02-19T09:58:33;96963.00;;;8.19;74.91
70589;BME280;58152;49.202;18.744;2023-02-19T10:01:01;96955.50;;;8.11;74.39
70589;BME280;58152;49.202;18.744;2023-02-19T10:03:37;96958.81;;;8.15;74.80
70589;BME280;58152;49.202;18.744;2023-02-19T10:06:10;96959.69;;;8.15;74.85
70589;BME280;58152;49.202;18.744;2023-02-19T10:08:39;96956.16;;;8.17;74.59
70589;BME280;58152;49.202;18.744;2023-02-19T10:11:05;96950.03;;;8.18;74.48
70589;BME280;58152;49.202;18.744;2023-02-19T10:13:43;96949.16;;;8.17;74.38
70589;BME280;58152;49.202;18.744;2023-02-19T10:16:17;96954.28;;;8.20;74.33
70589;BME280;58152;49.202;18.744;2023-02-19T10:18:44;96948.13;;;8.21;73.97
70589;BME280;58152;49.202;18.744;2023-02-19T10:21:20;96951.59;;;8.22;74.50
70589;BME280;58152;49.202;18.744;2023-02-19T10:23:50;96957.28;;;8.31;74.12
70589;BME280;58152;49.202;18.744;2023-02-19T10:26:18;96944.22;;;8.31;73.83
70589;BME280;58152;49.202;18.744;2023-02-19T10:28:44;96939.75;;;8.33;74.11
70589;BME280;58152;49.202;18.744;2023-02-19T10:31:18;96935.41;;;8.34;73.80
70589;BME280;58152;49.202;18.744;2023-02-19T10:33:54;96938.75;;;8.37;74.19
70589;BME280;58152;49.202;18.744;2023-02-19T10:36:32;96951.81;;;8.37;74.09
70589;BME280;58152;49.202;18.744;2023-02-19T10:39:01;96933.38;;;8.40;73.38
70589;BME280;58152;49.202;18.744;2023-02-19T10:41:28;96943.13;;;8.37;73.66
70589;BME280;58152;49.202;18.744;2023-02-19T10:46:34;96952.63;;;8.39;73.63
70589;BME280;58152;49.202;18.744;2023-02-19T10:49:03;96968.28;;;8.39;73.41
70589;BME280;58152;49.202;18.744;2023-02-19T10:51:35;96958.00;;;8.35;73.75
70589;BME280;58152;49.202;18.744;2023-02-19T10:54:05;96957.03;;;8.37;73.86
70589;BME280;58152;49.202;18.744;2023-02-19T10:56:31;96963.19;;;8.36;74.33
70589;BME280;58152;49.202;18.744;2023-02-19T11:02:02;96966.03;;;8.30;75.30
70589;BME280;58152;49.202;18.744;2023-02-19T11:04:30;96971.25;;;8.30;75.30
70589;BME280;58152;49.202;18.744;2023-02-19T11:07:12;96964.34;;;8.29;75.51
70589;BME280;58152;49.202;18.744;2023-02-19T11:09:43;96964.53;;;8.25;75.43
70589;BME280;58152;49.202;18.744;2023-02-19T11:12:11;96981.75;;;8.29;75.62
70589;BME280;58152;49.202;18.744;2023-02-19T11:14:42;96983.72;;;8.24;75.63
70589;BME280;58152;49.202;18.744;2023-02-19T11:17:25;96992.38;;;8.26;75.82
70589;BME280;58152;49.202;18.744;2023-02-19T11:19:54;97005.47;;;8.24;75.50
70589;BME280;58152;49.202;18.744;2023-02-19T11:22:40;97008.09;;;8.24;76.08
70589;BME280;58152;49.202;18.744;2023-02-19T11:33:28;97008.47;;;8.15;76.30
70589;BME280;58152;49.202;18.744;2023-02-19T11:38:47;96974.31;;;8.20;75.94
70589;BME280;58152;49.202;18.744;2023-02-19T11:55:20;96992.75;;;8.38;76.44
70589;BME280;58152;49.202;18.744;2023-02-19T12:04:15;96992.44;;;8.65;75.35
70589;BME280;58152;49.202;18.744;2023-02-19T12:10:07;96989.72;;;8.68;75.43
70589;BME280;58152;49.202;18.744;2023-02-19T12:15:16;97005.97;;;8.75;74.56
70589;BME280;58152;49.202;18.744;2023-02-19T12:20:29;96991.41;;;8.69;73.91
70589;BME280;58152;49.202;18.744;2023-02-19T12:44:46;97030.66;;;8.49;74.55
70589;BME280;58152;49.202;18.744;2023-02-19T12:47:27;97029.81;;;8.48;74.88
70589;BME280;58152;49.202;18.744;2023-02-19T12:50:19;97041.16;;;8.47;75.18
70589;BME280;58152;49.202;18.744;2023-02-19T12:52:50;97036.19;;;8.41;75.46
70589;BME280;58152;49.202;18.744;2023-02-19T12:55:23;97056.34;;;8.39;75.15
70589;BME280;58152;49.202;18.744;2023-02-19T12:57:51;97049.50;;;8.35;75.27
70589;BME280;58152;49.202;18.744;2023-02-19T13:00:34;97054.91;;;8.30;75.83
70589;BME280;58152;49.202;18.744;2023-02-19T13:06:08;97056.91;;;8.24;75.88
70589;BME280;58152;49.202;18.744;2023-02-19T13:08:39;97052.66;;;8.21;76.55
70589;BME280;58152;49.202;18.744;2023-02-19T13:11:13;97048.47;;;8.17;76.61
70589;BME280;58152;49.202;18.744;2023-02-19T13:13:50;97049.97;;;8.23;75.80
70589;BME280;58152;49.202;18.744;2023-02-19T13:16:18;97056.91;;;8.24;76.24
70589;BME280;58152;49.202;18.744;2023-02-19T13:21:17;97062.09;;;8.25;76.24
70589;BME280;58152;49.202;18.744;2023-02-19T13:24:09;97055.28;;;8.21;75.85
70589;BME280;58152;49.202;18.744;2023-02-19T13:27:02;97054.56;;;8.18;76.06
70589;BME280;58152;49.202;18.744;2023-02-19T13:37:54;97057.28;;;8.14;75.56
70589;BME280;58152;49.202;18.744;2023-02-19T13:40:36;97068.47;;;8.18;75.81
70589;BME280;58152;49.202;18.744;2023-02-19T13:43:05;97071.94;;;8.19;75.13
70589;BME280;58152;49.202;18.744;2023-02-19T13:48:11;97074.59;;;8.17;75.42
70589;BME280;58152;49.202;18.744;2023-02-19T13:50:37;97073.09;;;8.11;74.98
70589;BME280;58152;49.202;18.744;2023-02-19T14:05:07;97087.47;;;8.00;75.16
70589;BME280;58152;49.202;18.744;2023-02-19T14:17:43;97155.09;;;7.85;75.10
70589;BME280;58152;49.202;18.744;2023-02-19T14:22:45;97176.31;;;7.76;74.79
70589;BME280;58152;49.202;18.744;2023-02-19T14:27:42;97182.56;;;7.72;74.81
70589;BME280;58152;49.202;18.744;2023-02-19T14:30:10;97173.97;;;7.69;74.52
70589;BME280;58152;49.202;18.744;2023-02-19T14:32:38;97184.44;;;7.69;74.15
70589;BME280;58152;49.202;18.744;2023-02-19T14:35:04;97181.13;;;7.63;73.96
70589;BME280;58152;49.202;18.744;2023-02-19T14:37:30;97183.75;;;7.63;73.53
70589;BME280;58152;49.202;18.744;2023-02-19T14:39:56;97187.38;;;7.59;73.21
70589;BME280;58152;49.202;18.744;2023-02-19T14:42:23;97196.19;;;7.57;72.99
70589;BME280;58152;49.202;18.744;2023-02-19T14:45:00;97199.69;;;7.56;72.11
70589;BME280;58152;49.202;18.744;2023-02-19T14:47:29;97201.50;;;7.54;72.18
70589;BME280;58152;49.202;18.744;2023-02-19T14:50:00;97214.63;;;7.52;71.97
70589;BME280;58152;49.202;18.744;2023-02-19T14:57:42;97228.00;;;7.43;71.78
70589;BME280;58152;49.202;18.744;2023-02-19T15:00:23;97239.44;;;7.39;70.90
70589;BME280;58152;49.202;18.744;2023-02-19T15:02:53;97239.59;;;7.34;70.89
70589;BME280;58152;49.202;18.744;2023-02-19T15:05:27;97245.75;;;7.32;70.63
70589;BME280;58152;49.202;18.744;2023-02-19T15:07:55;97247.69;;;7.27;70.36
70589;BME280;58152;49.202;18.744;2023-02-19T15:10:22;97255.56;;;7.25;70.94
70589;BME280;58152;49.202;18.744;2023-02-19T15:12:53;97259.97;;;7.23;70.83
70589;BME280;58152;49.202;18.744;2023-02-19T15:15:31;97265.19;;;7.23;70.32
70589;BME280;58152;49.202;18.744;2023-02-19T15:17:59;97260.19;;;7.17;70.84
70589;BME280;58152;49.202;18.744;2023-02-19T15:20:28;97277.53;;;7.18;70.22
70589;BME280;58152;49.202;18.744;2023-02-19T15:22:55;97276.69;;;7.18;70.73
70589;BME280;58152;49.202;18.744;2023-02-19T15:25:22;97288.03;;;7.17;70.25
70589;BME280;58152;49.202;18.744;2023-02-19T15:27:50;97286.38;;;7.14;70.24
70589;BME280;58152;49.202;18.744;2023-02-19T15:30:25;97301.09;;;7.17;70.75